createdAt,value
2023-03-20T00:02:04.513Z,98784.75
2023-03-20T00:04:06.649Z,98791.59
2023-03-20T00:06:19.659Z,98789.13
2023-03-20T00:08:21.112Z,98788.00
2023-03-20T00:10:28.669Z,98786.38
2023-03-20T00:12:30.132Z,98789.34
2023-03-20T00:14:34.908Z,98794.00
2023-03-20T00:16:41.975Z,98794.28
2023-03-20T00:18:43.591Z,98792.63
2023-03-20T00:20:50.756Z,98796.72
2023-03-20T00:22:52.771Z,98793.44
2023-03-20T00:24:57.103Z,98790.13
2023-03-20T00:26:58.528Z,98793.16
2023-03-20T00:29:01.652Z,98792.56
2023-03-20T00:31:03.852Z,98792.56
2023-03-20T00:33:06.486Z,98791.78
2023-03-20T00:35:18.587Z,98784.63
2023-03-20T00:37:22.996Z,98794.75
2023-03-20T00:39:24.530Z,98790.38
2023-03-20T00:41:31.142Z,98786.00
2023-03-20T00:43:32.718Z,98785.16
2023-03-20T00:45:37.843Z,98785.44
2023-03-20T00:47:41.942Z,98787.34
2023-03-20T00:49:47.581Z,98777.47
2023-03-20T00:51:51.446Z,98773.94
2023-03-20T00:53:52.925Z,98782.16
2023-03-20T00:55:56.236Z,98776.91
2023-03-20T00:58:01.676Z,98779.94
2023-03-20T01:00:06.772Z,98783.50
2023-03-20T01:02:11.669Z,98786.25
2023-03-20T01:04:17.579Z,98786.50
2023-03-20T01:06:19.314Z,98788.41
2023-03-20T01:08:24.766Z,98784.28
2023-03-20T01:10:31.423Z,98780.47
2023-03-20T01:12:33.614Z,98785.38
2023-03-20T01:14:35.265Z,98779.91
2023-03-20T01:16:38.813Z,98784.53
2023-03-20T01:18:46.452Z,98782.88
2023-03-20T01:20:49.349Z,98782.09
2023-03-20T01:22:51.462Z,98781.50
2023-03-20T01:24:53.001Z,98778.75
2023-03-20T01:26:54.828Z,98781.50
2023-03-20T01:28:56.742Z,98788.09
2023-03-20T01:31:01.664Z,98791.91
2023-03-20T01:33:15.298Z,98791.06
2023-03-20T01:35:21.464Z,98794.94
2023-03-20T01:37:27.845Z,98795.16
2023-03-20T01:39:35.940Z,98799.00
2023-03-20T01:41:37.949Z,98795.44
2023-03-20T01:43:43.304Z,98796.28
2023-03-20T01:45:56.343Z,98792.97
2023-03-20T01:47:58.928Z,98791.31
2023-03-20T01:50:29.561Z,98790.78
2023-03-20T01:52:35.914Z,98792.69
2023-03-20T01:54:39.287Z,98789.09
2023-03-20T01:56:50.338Z,98792.94
2023-03-20T01:59:00.043Z,98795.69
2023-03-20T02:01:02.424Z,98809.63
2023-03-20T02:03:07.780Z,98811.53
2023-03-20T02:05:37.908Z,98805.50
2023-03-20T02:07:40.889Z,98814.81
2023-03-20T02:09:47.172Z,98810.44
2023-03-20T02:11:54.606Z,98811.50
2023-03-20T02:13:59.644Z,98808.75
2023-03-20T02:16:14.339Z,98812.06
2023-03-20T02:18:43.314Z,98817.53
2023-03-20T02:21:09.744Z,98818.06
2023-03-20T02:23:37.680Z,98819.13
2023-03-20T02:26:09.947Z,98818.28
2023-03-20T02:28:51.385Z,98814.16
2023-03-20T02:31:21.742Z,98819.09
2023-03-20T02:33:53.092Z,98810.03
2023-03-20T02:36:22.642Z,98816.88
2023-03-20T02:38:45.607Z,98814.13
2023-03-20T02:41:13.019Z,98817.13
2023-03-20T02:43:31.309Z,98807.53
2023-03-20T02:46:05.228Z,98807.81
2023-03-20T02:48:24.425Z,98802.59
2023-03-20T02:50:36.084Z,98802.59
2023-03-20T02:53:01.291Z,98804.22
2023-03-20T02:55:02.893Z,98805.03
2023-03-20T02:57:25.711Z,98803.09
2023-03-20T02:59:42.048Z,98812.41
2023-03-20T03:01:53.771Z,98809.69
2023-03-20T03:04:00.932Z,98801.47
2023-03-20T03:06:15.366Z,98811.59
2023-03-20T03:08:22.335Z,98812.41
2023-03-20T03:10:33.377Z,98805.28
2023-03-20T03:12:38.883Z,98821.69
2023-03-20T03:14:46.370Z,98820.06
2023-03-20T03:16:52.349Z,98814.59
2023-03-20T03:19:15.694Z,98814.84
2023-03-20T03:21:18.758Z,98816.50
2023-03-20T03:24:00.783Z,98816.75
2023-03-20T03:26:05.195Z,98819.75
2023-03-20T03:28:23.041Z,98811.53
2023-03-20T03:30:29.863Z,98825.22
2023-03-20T03:32:37.155Z,98828.25
2023-03-20T03:34:40.146Z,98820.81
2023-03-20T03:37:03.910Z,98821.94
2023-03-20T03:39:33.392Z,98823.84
2023-03-20T03:41:44.640Z,98821.38
2023-03-20T03:43:57.633Z,98817.81
2023-03-20T03:46:04.589Z,98823.28
2023-03-20T03:48:15.907Z,98822.44
2023-03-20T03:50:23.730Z,98828.75
2023-03-20T03:52:27.824Z,98833.41
2023-03-20T03:54:44.162Z,98831.50
2023-03-20T03:57:24.301Z,98832.81
2023-03-20T03:59:37.755Z,98832.25
2023-03-20T04:01:44.214Z,98831.41
2023-03-20T04:03:52.538Z,98837.13
2023-03-20T04:05:58.830Z,98839.06
2023-03-20T04:08:02.987Z,98836.56
2023-03-20T04:10:04.743Z,98836.00
2023-03-20T04:12:06.516Z,98843.38
2023-03-20T04:14:08.031Z,98840.91
2023-03-20T04:16:17.139Z,98833.78
2023-03-20T04:18:19.759Z,98839.53
2023-03-20T04:20:22.835Z,98843.59
2023-03-20T04:22:27.429Z,98849.09
2023-03-20T04:24:31.098Z,98839.47
2023-03-20T04:26:35.372Z,98836.97
2023-03-20T04:28:37.420Z,98847.38
2023-03-20T04:31:00.025Z,98845.97
2023-03-20T04:33:22.782Z,98846.47
2023-03-20T04:35:51.082Z,98853.84
2023-03-20T04:37:56.033Z,98857.94
2023-03-20T04:39:57.913Z,98861.78
2023-03-20T04:41:59.628Z,98842.06
2023-03-20T04:44:02.175Z,98861.22
2023-03-20T04:46:05.867Z,98859.28
2023-03-20T04:48:08.049Z,98857.66
2023-03-20T04:50:14.091Z,98866.69
2023-03-20T04:52:16.305Z,98859.53
2023-03-20T04:54:20.120Z,98863.94
2023-03-20T04:56:25.036Z,98859.53
2023-03-20T04:58:29.909Z,98861.22
2023-03-20T05:00:31.607Z,98861.22
2023-03-20T05:02:33.278Z,98865.84
2023-03-20T05:04:35.036Z,98859.28
2023-03-20T05:06:37.628Z,98861.44
2023-03-20T05:08:39.102Z,98869.41
2023-03-20T05:10:43.171Z,98874.88
2023-03-20T05:13:16.964Z,98874.06
2023-03-20T05:15:35.559Z,98878.69
2023-03-20T05:17:55.990Z,98877.03
2023-03-20T05:20:16.396Z,98877.84
2023-03-20T05:22:37.145Z,98881.44
2023-03-20T05:24:49.217Z,98886.06
2023-03-20T05:26:57.562Z,98885.00
2023-03-20T05:29:25.608Z,98891.28
2023-03-20T05:31:47.367Z,98888.78
2023-03-20T05:34:11.694Z,98887.97
2023-03-20T05:36:48.541Z,98889.06
2023-03-20T05:39:21.071Z,98894.53
2023-03-20T05:41:45.837Z,98893.44
2023-03-20T05:44:06.301Z,98890.69
2023-03-20T05:46:32.394Z,98894.28
2023-03-20T05:48:51.149Z,98895.09
2023-03-20T05:51:03.258Z,98903.88
2023-03-20T05:53:24.304Z,98903.88
2023-03-20T05:55:50.461Z,98914.56
2023-03-20T05:58:12.761Z,98918.13
2023-03-20T06:00:33.237Z,98923.59
2023-03-20T06:03:07.106Z,98929.88
2023-03-20T06:05:26.217Z,98921.69
2023-03-20T06:07:27.902Z,98925.25
2023-03-20T06:09:36.644Z,98926.66
2023-03-20T06:11:42.738Z,98923.91
2023-03-20T06:13:44.885Z,98931.03
2023-03-20T06:15:47.046Z,98936.25
2023-03-20T06:17:51.923Z,98934.34
2023-03-20T06:19:53.826Z,98928.38
2023-03-20T06:21:57.020Z,98936.56
2023-03-20T06:24:00.029Z,98923.69
2023-03-20T06:26:02.879Z,98921.22
2023-03-20T06:28:12.522Z,98931.09
2023-03-20T06:30:15.470Z,98930.00
2023-03-20T06:32:18.582Z,98932.50
2023-03-20T06:34:30.424Z,98934.13
2023-03-20T06:36:32.325Z,98937.69
2023-03-20T06:38:40.304Z,98935.53
2023-03-20T06:40:46.816Z,98941.31
2023-03-20T06:42:52.165Z,98940.25
2023-03-20T06:44:53.916Z,98944.91
2023-03-20T06:47:13.554Z,98933.97
2023-03-20T06:49:15.174Z,98930.13
2023-03-20T06:51:16.704Z,98923.84
2023-03-20T06:53:26.006Z,98932.63
2023-03-20T06:55:38.801Z,98929.09
2023-03-20T06:57:40.748Z,98929.66
2023-03-20T06:59:42.546Z,98930.22
2023-03-20T07:01:44.176Z,98929.19
2023-03-20T07:03:48.677Z,98926.78
2023-03-20T07:05:58.625Z,98932.81
2023-03-20T07:08:01.065Z,98927.88
2023-03-20T07:10:05.543Z,98929.00
2023-03-20T07:12:14.446Z,98933.75
2023-03-20T07:14:16.698Z,98935.38
2023-03-20T07:16:36.182Z,98934.03
2023-03-20T07:18:37.891Z,98939.00
2023-03-20T07:20:39.332Z,98936.03
2023-03-20T07:22:41.647Z,98945.41
2023-03-20T07:24:52.810Z,98943.50
2023-03-20T07:26:56.457Z,98946.28
2023-03-20T07:28:58.092Z,98939.19
2023-03-20T07:31:04.108Z,98940.28
2023-03-20T07:33:07.790Z,98942.53
2023-03-20T07:35:10.292Z,98938.19
2023-03-20T07:37:15.567Z,98937.66
2023-03-20T07:39:23.392Z,98937.69
2023-03-20T07:41:43.576Z,98945.38
2023-03-20T07:43:57.313Z,98943.78
2023-03-20T07:45:58.763Z,98943.78
2023-03-20T07:48:00.604Z,98950.94
2023-03-20T07:50:02.152Z,98944.44
2023-03-20T07:52:05.614Z,98946.66
2023-03-20T07:54:07.099Z,98949.97
2023-03-20T07:56:09.542Z,98945.63
2023-03-20T07:58:11.139Z,98945.94
2023-03-20T08:00:16.494Z,98947.88
2023-03-20T08:02:21.234Z,98939.69
2023-03-20T08:04:23.217Z,98944.63
2023-03-20T08:06:25.152Z,98948.25
2023-03-20T08:08:26.983Z,98941.69
2023-03-20T08:10:28.492Z,98943.69
2023-03-20T08:12:29.984Z,98936.56
2023-03-20T08:14:31.667Z,98939.59
2023-03-20T08:16:36.324Z,98932.47
2023-03-20T08:18:39.194Z,98939.66
2023-03-20T08:20:40.657Z,98938.28
2023-03-20T08:22:44.008Z,98942.16
2023-03-20T08:24:45.630Z,98937.75
2023-03-20T08:26:50.171Z,98936.16
2023-03-20T08:28:52.679Z,98935.06
2023-03-20T08:30:54.405Z,98937.28
2023-03-20T08:32:58.353Z,98937.28
2023-03-20T08:35:00.352Z,98937.31
2023-03-20T08:37:05.000Z,98939.53
2023-03-20T08:39:09.917Z,98941.44
2023-03-20T08:41:11.651Z,98943.94
2023-03-20T08:43:13.130Z,98944.22
2023-03-20T08:45:15.042Z,98935.16
2023-03-20T08:47:16.743Z,98951.38
2023-03-20T08:49:18.531Z,98954.16
2023-03-20T08:51:20.426Z,98954.16
2023-03-20T08:53:22.307Z,98957.75
2023-03-20T08:55:25.403Z,98955.81
2023-03-20T08:57:27.388Z,98954.44
2023-03-20T08:59:29.274Z,98960.78
2023-03-20T09:01:48.006Z,98958.56
2023-03-20T09:03:50.813Z,98970.44
2023-03-20T09:05:52.560Z,98960.03
2023-03-20T09:07:54.095Z,98963.03
2023-03-20T09:09:55.783Z,98958.38
2023-03-20T09:11:58.638Z,98957.81
2023-03-20T09:14:03.625Z,98963.88
2023-03-20T09:16:08.640Z,98963.03
2023-03-20T09:18:10.357Z,98960.28
2023-03-20T09:20:12.675Z,98966.91
2023-03-20T09:22:15.861Z,98970.75
2023-03-20T09:24:17.485Z,98972.97
2023-03-20T09:26:19.947Z,98973.78
2023-03-20T09:28:21.462Z,98969.66
2023-03-20T09:30:24.610Z,98974.34
2023-03-20T09:32:26.064Z,98975.97
2023-03-20T09:34:27.672Z,98974.88
2023-03-20T09:36:29.245Z,98970.75
2023-03-20T09:38:30.681Z,98977.09
2023-03-20T09:40:53.986Z,98982.59
2023-03-20T09:43:03.781Z,98983.66
2023-03-20T09:45:34.308Z,98986.69
2023-03-20T09:47:45.881Z,98978.72
2023-03-20T09:50:25.938Z,98982.28
2023-03-20T09:52:31.906Z,98970.75
2023-03-20T09:54:53.613Z,98971.03
2023-03-20T09:56:57.084Z,98969.66
2023-03-20T09:59:05.232Z,98963.03
2023-03-20T10:01:12.809Z,98967.97
2023-03-20T10:03:27.033Z,98969.34
2023-03-20T10:05:41.040Z,98962.75
2023-03-20T10:07:43.021Z,98966.06
2023-03-20T10:09:45.975Z,98967.69
2023-03-20T10:12:29.131Z,98967.69
2023-03-20T10:14:39.687Z,98968.81
2023-03-20T10:17:09.250Z,98978.69
2023-03-20T10:19:28.808Z,98980.34
2023-03-20T10:21:42.534Z,98975.13
2023-03-20T10:24:04.376Z,98973.75
2023-03-20T10:26:23.314Z,98973.44
2023-03-20T10:28:44.227Z,98975.38
2023-03-20T10:31:02.337Z,98972.38
2023-03-20T10:33:26.931Z,98972.38
2023-03-20T10:35:50.381Z,98972.91
2023-03-20T10:38:12.068Z,98972.91
2023-03-20T10:40:27.309Z,98974.53
2023-03-20T10:42:34.146Z,98964.91
2023-03-20T10:44:44.434Z,98972.06
2023-03-20T10:46:54.035Z,98973.13
2023-03-20T10:49:03.110Z,98974.78
2023-03-20T10:51:06.875Z,98968.19
2023-03-20T10:53:21.506Z,98966.81
2023-03-20T10:55:30.866Z,98964.91
2023-03-20T10:57:38.662Z,98973.72
2023-03-20T10:59:52.152Z,98970.97
2023-03-20T11:01:54.231Z,98972.34
2023-03-20T11:03:56.649Z,98966.00
2023-03-20T11:06:10.177Z,98967.63
2023-03-20T11:08:18.799Z,98957.19
2023-03-20T11:10:26.547Z,98965.44
2023-03-20T11:12:33.497Z,98958.00
2023-03-20T11:14:38.858Z,98962.94
2023-03-20T11:16:40.785Z,98960.47
2023-03-20T11:18:42.575Z,98956.59
2023-03-20T11:21:03.378Z,98964.28
2023-03-20T11:23:08.300Z,98956.31
2023-03-20T11:25:24.191Z,98959.06
2023-03-20T11:27:34.675Z,98962.34
2023-03-20T11:29:37.664Z,98959.34
2023-03-20T11:31:41.302Z,98956.84
2023-03-20T11:33:47.104Z,98955.44
2023-03-20T11:35:53.871Z,98957.94
2023-03-20T11:38:13.507Z,98959.00
2023-03-20T11:40:35.174Z,98961.47
2023-03-20T11:42:37.453Z,98961.75
2023-03-20T11:44:44.033Z,98958.41
2023-03-20T11:46:54.900Z,98958.41
2023-03-20T11:49:17.286Z,98962.81
2023-03-20T11:51:21.759Z,98956.19
2023-03-20T11:53:34.227Z,98958.97
2023-03-20T11:55:36.137Z,98958.13
2023-03-20T11:57:40.499Z,98955.91
2023-03-20T11:59:41.953Z,98952.88
2023-03-20T12:01:56.132Z,98943.50
2023-03-20T12:04:03.638Z,98938.56
2023-03-20T12:06:14.380Z,98935.81
2023-03-20T12:08:25.961Z,98942.09
2023-03-20T12:10:32.926Z,98931.66
2023-03-20T12:12:41.229Z,98936.03
2023-03-20T12:14:53.620Z,98927.78
2023-03-20T12:17:20.155Z,98931.34
2023-03-20T12:19:29.345Z,98930.53
2023-03-20T12:21:40.846Z,98930.53
2023-03-20T12:24:01.184Z,98933.84
2023-03-20T12:26:23.880Z,98933.84
2023-03-20T12:28:46.595Z,98930.81
2023-03-20T12:31:12.766Z,98927.25
2023-03-20T12:33:26.382Z,98927.25
2023-03-20T12:35:31.269Z,98927.25
2023-03-20T12:37:37.297Z,98928.06
2023-03-20T12:39:46.275Z,98925.31
2023-03-20T12:41:50.697Z,98926.41
2023-03-20T12:44:05.266Z,98922.81
2023-03-20T12:46:29.456Z,98927.81
2023-03-20T12:49:04.392Z,98922.59
2023-03-20T12:51:25.501Z,98916.53
2023-03-20T12:53:58.797Z,98924.53
2023-03-20T12:56:19.968Z,98920.13
2023-03-20T12:58:27.142Z,98915.44
2023-03-20T13:00:38.457Z,98921.78
2023-03-20T13:03:06.826Z,98921.78
2023-03-20T13:05:33.339Z,98922.63
2023-03-20T13:07:55.880Z,98925.38
2023-03-20T13:10:10.931Z,98919.88
2023-03-20T13:12:35.677Z,98916.28
2023-03-20T13:15:05.229Z,98914.63
2023-03-20T13:17:25.186Z,98906.94
2023-03-20T13:19:45.234Z,98904.16
2023-03-20T13:21:58.643Z,98908.28
2023-03-20T13:24:22.093Z,98899.72
2023-03-20T13:26:38.827Z,98898.06
2023-03-20T13:29:27.564Z,98902.47
2023-03-20T13:31:44.828Z,98896.97
2023-03-20T13:33:52.486Z,98898.06
2023-03-20T13:36:12.757Z,98891.75
2023-03-20T13:38:22.967Z,98888.19
2023-03-20T13:40:29.190Z,98885.44
2023-03-20T13:42:36.906Z,98880.75
2023-03-20T13:44:41.091Z,98889.81
2023-03-20T13:46:54.010Z,98885.13
2023-03-20T13:49:19.341Z,98886.50
2023-03-20T13:51:38.459Z,98882.34
2023-03-20T13:54:01.910Z,98883.69
2023-03-20T13:56:18.638Z,98874.88
2023-03-20T13:58:44.335Z,98872.94
2023-03-20T14:01:01.788Z,98878.97
2023-03-20T14:03:21.006Z,98871.00
2023-03-20T14:05:27.061Z,98865.19
2023-03-20T14:07:42.361Z,98865.19
2023-03-20T14:09:43.968Z,98866.00
2023-03-20T14:11:45.446Z,98869.28
2023-03-20T14:13:50.487Z,98865.13
2023-03-20T14:15:55.470Z,98858.53
2023-03-20T14:17:57.411Z,98861.56
2023-03-20T14:20:15.185Z,98856.03
2023-03-20T14:22:19.984Z,98861.56
2023-03-20T14:24:23.919Z,98862.69
2023-03-20T14:26:38.551Z,98859.09
2023-03-20T14:29:05.063Z,98860.72
2023-03-20T14:31:28.370Z,98863.78
2023-03-20T14:33:34.428Z,98861.84
2023-03-20T14:35:38.482Z,98860.19
2023-03-20T14:38:03.158Z,98853.84
2023-03-20T14:40:19.342Z,98847.56
2023-03-20T14:42:40.007Z,98848.34
2023-03-20T14:44:47.546Z,98844.78
2023-03-20T14:47:31.739Z,98843.66
2023-03-20T14:49:54.618Z,98851.94
2023-03-20T14:52:23.921Z,98845.59
2023-03-20T14:54:28.979Z,98847.25
2023-03-20T14:56:37.390Z,98837.06
2023-03-20T14:59:07.055Z,98848.09
2023-03-20T15:01:20.955Z,98843.66
2023-03-20T15:03:24.268Z,98847.25
2023-03-20T15:05:32.690Z,98843.41
2023-03-20T15:07:39.105Z,98840.66
2023-03-20T15:09:43.967Z,98842.28
2023-03-20T15:11:49.318Z,98845.03
2023-03-20T15:13:52.983Z,98845.84
2023-03-20T15:15:59.894Z,98838.41
2023-03-20T15:18:12.324Z,98835.66
2023-03-20T15:20:19.614Z,98832.38
2023-03-20T15:22:21.955Z,98829.63
2023-03-20T15:24:26.979Z,98826.03
2023-03-20T15:26:31.914Z,98830.41
2023-03-20T15:28:37.580Z,98833.19
2023-03-20T15:30:40.433Z,98832.38
2023-03-20T15:32:45.338Z,98830.72
2023-03-20T15:34:49.188Z,98830.72
2023-03-20T15:36:58.712Z,98830.19
2023-03-20T15:39:16.817Z,98837.63
2023-03-20T15:41:34.222Z,98835.97
2023-03-20T15:43:36.886Z,98826.06
2023-03-20T15:45:42.304Z,98828.00
2023-03-20T15:47:44.106Z,98838.19
2023-03-20T15:50:02.743Z,98827.47
2023-03-20T15:52:08.000Z,98835.22
2023-03-20T15:54:13.708Z,98833.25
2023-03-20T15:56:19.440Z,98828.03
2023-03-20T15:58:21.385Z,98838.53
2023-03-20T16:00:34.606Z,98820.34
2023-03-20T16:02:37.606Z,98822.56
2023-03-20T16:04:50.218Z,98833.06
2023-03-20T16:06:58.078Z,98833.88
2023-03-20T16:09:02.153Z,98834.16
2023-03-20T16:11:07.809Z,98829.78
2023-03-20T16:13:19.543Z,98831.97
2023-03-20T16:15:27.757Z,98833.91
2023-03-20T16:17:29.460Z,98829.81
2023-03-20T16:19:31.549Z,98822.63
2023-03-20T16:21:46.703Z,98830.38
2023-03-20T16:23:52.058Z,98827.09
2023-03-20T16:25:58.392Z,98834.78
2023-03-20T16:28:03.457Z,98831.25
2023-03-20T16:30:15.995Z,98837.00
2023-03-20T16:32:28.015Z,98834.81
2023-03-20T16:34:38.250Z,98838.97
2023-03-20T16:36:39.723Z,98828.25
2023-03-20T16:38:59.035Z,98838.72
2023-03-20T16:41:22.176Z,98830.19
2023-03-20T16:43:30.214Z,98834.06
2023-03-20T16:45:34.403Z,98838.19
2023-03-20T16:47:38.386Z,98832.16
2023-03-20T16:49:55.034Z,98832.72
2023-03-20T16:52:01.070Z,98835.47
2023-03-20T16:54:04.777Z,98836.06
2023-03-20T16:56:15.070Z,98831.13
2023-03-20T16:58:22.076Z,98838.84
2023-03-20T17:00:32.016Z,98842.97
2023-03-20T17:02:41.053Z,98836.13
2023-03-20T17:04:49.729Z,98846.81
2023-03-20T17:06:58.933Z,98843.00
2023-03-20T17:09:08.783Z,98839.41
2023-03-20T17:11:13.576Z,98845.47
2023-03-20T17:13:15.220Z,98853.19
2023-03-20T17:15:25.870Z,98849.91
2023-03-20T17:17:27.660Z,98846.06
2023-03-20T17:19:32.678Z,98855.44
2023-03-20T17:21:34.690Z,98860.38
2023-03-20T17:23:36.631Z,98848.84
2023-03-20T17:25:40.766Z,98859.28
2023-03-20T17:27:42.555Z,98850.50
2023-03-20T17:29:45.019Z,98856.28
2023-03-20T17:31:46.698Z,98846.66
2023-03-20T17:33:48.222Z,98843.38
2023-03-20T17:35:49.877Z,98850.00
2023-03-20T17:37:53.815Z,98843.13
2023-03-20T17:39:55.358Z,98843.69
2023-03-20T17:41:56.959Z,98845.06
2023-03-20T17:43:58.432Z,98844.53
2023-03-20T17:46:00.003Z,98845.06
2023-03-20T17:48:01.728Z,98848.91
2023-03-20T17:50:04.173Z,98842.03
2023-03-20T17:52:05.855Z,98842.34
2023-03-20T17:54:07.604Z,98847.28
2023-03-20T17:56:20.629Z,98849.78
2023-03-20T17:58:23.671Z,98851.16
2023-03-20T18:00:25.488Z,98851.69
2023-03-20T18:02:27.756Z,98850.63
2023-03-20T18:04:29.268Z,98850.09
2023-03-20T18:06:33.078Z,98848.72
2023-03-20T18:08:34.593Z,98851.19
2023-03-20T18:10:37.753Z,98852.28
2023-03-20T18:12:42.518Z,98852.84
2023-03-20T18:14:44.972Z,98848.44
2023-03-20T18:16:46.649Z,98857.22
2023-03-20T18:18:48.226Z,98857.53
2023-03-20T18:20:49.770Z,98856.16
2023-03-20T18:22:51.290Z,98848.44
2023-03-20T18:24:52.847Z,98848.75
2023-03-20T18:26:55.950Z,98855.63
2023-03-20T18:28:57.596Z,98847.63
2023-03-20T18:30:59.349Z,98847.09
2023-03-20T18:33:01.455Z,98846.53
2023-03-20T18:35:03.088Z,98853.41
2023-03-20T18:37:07.969Z,98844.63
2023-03-20T18:39:16.688Z,98847.06
2023-03-20T18:41:18.164Z,98851.19
2023-03-20T18:43:19.744Z,98847.31
2023-03-20T18:45:22.159Z,98846.78
2023-03-20T18:47:23.581Z,98854.19
2023-03-20T18:49:25.100Z,98843.78
2023-03-20T18:51:26.599Z,98847.06
2023-03-20T18:53:29.968Z,98854.75
2023-03-20T18:55:32.096Z,98849.81
2023-03-20T18:57:34.000Z,98862.72
2023-03-20T18:59:35.725Z,98845.69
2023-03-20T19:01:37.196Z,98857.75
2023-03-20T19:03:41.535Z,98854.47
2023-03-20T19:05:43.209Z,98863.78
2023-03-20T19:07:46.042Z,98860.25
2023-03-20T19:09:47.528Z,98864.06
2023-03-20T19:11:49.171Z,98865.44
2023-03-20T19:13:52.820Z,98865.97
2023-03-20T19:15:54.623Z,98867.09
2023-03-20T19:17:56.760Z,98863.78
2023-03-20T19:20:00.873Z,98868.47
2023-03-20T19:22:02.912Z,98864.34
2023-03-20T19:24:06.208Z,98870.09
2023-03-20T19:26:19.139Z,98863.50
2023-03-20T19:28:38.796Z,98859.09
2023-03-20T19:30:42.085Z,98865.72
2023-03-20T19:32:43.765Z,98870.63
2023-03-20T19:35:35.252Z,98860.75
2023-03-20T19:37:06.788Z,98860.47
2023-03-20T19:39:12.516Z,98858.84
2023-03-20T19:41:14.811Z,98861.81
2023-03-20T19:43:16.330Z,98863.19
2023-03-20T19:45:17.785Z,98868.69
2023-03-20T19:47:19.393Z,98858.00
2023-03-20T19:49:24.940Z,98854.41
2023-03-20T19:51:31.559Z,98856.63
2023-03-20T19:53:33.093Z,98857.69
2023-03-20T19:55:35.459Z,98854.13
2023-03-20T19:57:38.865Z,98856.06
2023-03-20T19:59:43.934Z,98855.50
2023-03-20T20:01:45.975Z,98857.16
2023-03-20T20:03:49.802Z,98863.72
2023-03-20T20:05:52.623Z,98859.59
2023-03-20T20:08:23.086Z,98862.09
2023-03-20T20:10:28.526Z,98857.13
2023-03-20T20:12:31.227Z,98858.22
2023-03-20T20:14:35.256Z,98855.47
2023-03-20T20:16:39.585Z,98856.59
2023-03-20T20:18:41.368Z,98859.59
2023-03-20T20:21:27.266Z,98862.31
2023-03-20T20:23:15.660Z,98854.66
2023-03-20T20:25:19.245Z,98853.28
2023-03-20T20:27:20.775Z,98855.19
2023-03-20T20:29:24.525Z,98854.38
2023-03-20T20:31:30.657Z,98847.50
2023-03-20T20:33:34.400Z,98852.69
2023-03-20T20:35:55.746Z,98853.00
2023-03-20T20:40:20.650Z,98845.28
2023-03-20T20:42:22.930Z,98848.88
2023-03-20T20:44:24.532Z,98848.88
2023-03-20T20:46:28.406Z,98848.03
2023-03-20T20:48:30.145Z,98854.88
2023-03-20T20:50:33.135Z,98848.56
2023-03-20T20:52:39.741Z,98855.16
2023-03-20T20:54:43.439Z,98854.63
2023-03-20T20:56:45.276Z,98855.41
2023-03-20T20:58:46.823Z,98854.63
2023-03-20T21:00:54.747Z,98854.63
2023-03-20T21:02:56.885Z,98852.13
2023-03-20T21:04:58.556Z,98853.22
2023-03-20T21:07:10.262Z,98852.41
2023-03-20T21:09:12.835Z,98855.41
2023-03-20T21:11:18.295Z,98864.75
2023-03-20T21:13:22.324Z,98861.44
2023-03-20T21:15:23.764Z,98860.63
2023-03-20T21:17:27.956Z,98860.31
2023-03-20T21:19:33.503Z,98857.84
2023-03-20T21:21:35.812Z,98856.19
2023-03-20T21:23:42.640Z,98856.75
2023-03-20T21:25:47.797Z,98852.09
2023-03-20T21:27:49.849Z,98845.22
2023-03-20T21:29:51.627Z,98842.75
2023-03-20T21:31:53.693Z,98843.59
2023-03-20T21:33:56.597Z,98844.13
2023-03-20T21:35:58.338Z,98839.72
2023-03-20T21:40:24.398Z,98844.38
2023-03-20T21:42:25.958Z,98836.41
2023-03-20T21:54:47.628Z,98843.50
2023-03-20T21:57:01.263Z,98842.91
2023-03-20T21:59:29.340Z,98853.06
2023-03-20T22:04:12.949Z,98860.44
2023-03-20T22:06:45.536Z,98862.59
2023-03-20T22:11:31.657Z,98860.16
2023-03-20T22:14:05.844Z,98865.06
2023-03-20T22:18:21.507Z,98860.94
2023-03-20T22:30:12.660Z,98869.94
2023-03-20T22:32:40.951Z,98873.22
2023-03-20T22:34:54.417Z,98878.38
2023-03-20T22:37:37.455Z,98879.72
2023-03-20T22:42:30.640Z,98879.69
2023-03-20T22:44:47.781Z,98879.16
2023-03-20T22:46:43.960Z,98873.34
2023-03-20T22:48:40.330Z,98878.84
2023-03-20T22:50:41.806Z,98876.94
2023-03-20T22:52:50.549Z,98870.91
2023-03-20T22:54:52.126Z,98870.63
2023-03-20T22:56:53.597Z,98870.91
2023-03-20T22:58:55.127Z,98864.34
2023-03-20T23:00:57.278Z,98869.81
2023-03-20T23:03:13.830Z,98861.59
2023-03-20T23:05:19.090Z,98862.94
2023-03-20T23:07:21.144Z,98855.53
2023-03-20T23:09:22.675Z,98859.38
2023-03-20T23:11:25.455Z,98857.72
2023-03-20T23:13:26.946Z,98861.56
2023-03-20T23:15:28.660Z,98860.97
2023-03-20T23:17:30.314Z,98857.44
2023-03-20T23:19:34.483Z,98849.22
2023-03-20T23:21:46.672Z,98855.22
2023-03-20T23:23:48.435Z,98856.28
2023-03-20T23:25:50.082Z,98857.41
2023-03-20T23:27:52.243Z,98862.06
2023-03-20T23:29:53.724Z,98862.06
2023-03-20T23:31:55.363Z,98859.56
2023-03-20T23:34:09.452Z,98851.34
2023-03-20T23:36:32.577Z,98857.94
2023-03-20T23:38:36.602Z,98860.91
2023-03-20T23:40:38.323Z,98861.75
2023-03-20T23:42:45.441Z,98857.94
2023-03-20T23:44:57.274Z,98854.34
2023-03-20T23:47:11.227Z,98854.63
2023-03-20T23:49:31.248Z,98856.53
2023-03-20T23:51:36.005Z,98859.28
2023-03-20T23:53:39.429Z,98863.91
2023-03-20T23:55:43.127Z,98861.19
2023-03-20T23:57:57.808Z,98847.75
